sensor_id;sensor_type;location;lat;lon;timestamp;P1;durP1;ratioP1;P2;durP2;ratioP2
77872;SDS011;67068;52.116;4.440;2023-10-19T00:00:34;7.88;;;2.45;;
77872;SDS011;67068;52.116;4.440;2023-10-19T00:03:01;7.35;;;2.20;;
77872;SDS011;67068;52.116;4.440;2023-10-19T00:05:31;9.07;;;2.30;;
77872;SDS011;67068;52.116;4.440;2023-10-19T00:07:57;7.78;;;2.40;;
77872;SDS011;67068;52.116;4.440;2023-10-19T00:10:23;7.80;;;2.22;;
77872;SDS011;67068;52.116;4.440;2023-10-19T00:12:50;6.97;;;2.50;;
77872;SDS011;67068;52.116;4.440;2023-10-19T00:15:22;9.02;;;2.92;;
77872;SDS011;67068;52.116;4.440;2023-10-19T00:17:50;7.20;;;2.30;;
77872;SDS011;67068;52.116;4.440;2023-10-19T00:23:00;7.03;;;2.03;;
77872;SDS011;67068;52.116;4.440;2023-10-19T00:25:27;6.68;;;2.00;;
77872;SDS011;67068;52.116;4.440;2023-10-19T00:27:54;7.38;;;2.28;;
77872;SDS011;67068;52.116;4.440;2023-10-19T00:30:19;7.87;;;2.37;;
77872;SDS011;67068;52.116;4.440;2023-10-19T00:32:48;9.02;;;3.13;;
77872;SDS011;67068;52.116;4.440;2023-10-19T00:35:14;7.30;;;2.40;;
77872;SDS011;67068;52.116;4.440;2023-10-19T00:38:00;6.60;;;2.20;;
77872;SDS011;67068;52.116;4.440;2023-10-19T00:40:49;8.48;;;2.45;;
77872;SDS011;67068;52.116;4.440;2023-10-19T00:43:25;7.28;;;2.40;;
77872;SDS011;67068;52.116;4.440;2023-10-19T00:45:50;6.97;;;2.20;;
77872;SDS011;67068;52.116;4.440;2023-10-19T00:48:17;6.05;;;2.00;;
77872;SDS011;67068;52.116;4.440;2023-10-19T00:50:42;6.95;;;2.00;;
77872;SDS011;67068;52.116;4.440;2023-10-19T00:53:08;6.78;;;2.15;;
77872;SDS011;67068;52.116;4.440;2023-10-19T00:55:34;6.53;;;1.98;;
77872;SDS011;67068;52.116;4.440;2023-10-19T00:58:00;6.07;;;2.10;;
77872;SDS011;67068;52.116;4.440;2023-10-19T01:00:28;6.90;;;2.22;;
77872;SDS011;67068;52.116;4.440;2023-10-19T01:02:59;6.82;;;2.00;;
77872;SDS011;67068;52.116;4.440;2023-10-19T01:05:26;6.88;;;2.13;;
77872;SDS011;67068;52.116;4.440;2023-10-19T01:07:57;5.68;;;1.92;;
77872;SDS011;67068;52.116;4.440;2023-10-19T01:10:22;6.20;;;1.80;;
77872;SDS011;67068;52.116;4.440;2023-10-19T01:12:49;6.88;;;2.00;;
77872;SDS011;67068;52.116;4.440;2023-10-19T01:15:19;7.03;;;1.80;;
77872;SDS011;67068;52.116;4.440;2023-10-19T01:17:54;4.70;;;1.67;;
77872;SDS011;67068;52.116;4.440;2023-10-19T01:20:23;6.30;;;1.95;;
77872;SDS011;67068;52.116;4.440;2023-10-19T01:22:55;7.95;;;2.50;;
77872;SDS011;67068;52.116;4.440;2023-10-19T01:28:06;5.80;;;2.00;;
77872;SDS011;67068;52.116;4.440;2023-10-19T01:30:32;5.75;;;1.90;;
77872;SDS011;67068;52.116;4.440;2023-10-19T01:32:58;6.28;;;1.98;;
77872;SDS011;67068;52.116;4.440;2023-10-19T01:35:23;5.83;;;1.97;;
77872;SDS011;67068;52.116;4.440;2023-10-19T01:37:48;5.57;;;2.00;;
77872;SDS011;67068;52.116;4.440;2023-10-19T01:40:14;7.97;;;2.47;;
77872;SDS011;67068;52.116;4.440;2023-10-19T01:42:45;7.03;;;2.17;;
77872;SDS011;67068;52.116;4.440;2023-10-19T01:45:10;6.00;;;2.07;;
77872;SDS011;67068;52.116;4.440;2023-10-19T01:47:36;5.38;;;2.00;;
77872;SDS011;67068;52.116;4.440;2023-10-19T01:50:01;7.00;;;2.13;;
77872;SDS011;67068;52.116;4.440;2023-10-19T01:52:27;5.38;;;1.83;;
77872;SDS011;67068;52.116;4.440;2023-10-19T01:54:53;4.33;;;1.70;;
77872;SDS011;67068;52.116;4.440;2023-10-19T01:57:24;4.45;;;1.60;;
77872;SDS011;67068;52.116;4.440;2023-10-19T01:59:50;5.05;;;1.80;;
77872;SDS011;67068;52.116;4.440;2023-10-19T02:02:16;6.33;;;1.70;;
77872;SDS011;67068;52.116;4.440;2023-10-19T02:04:41;5.28;;;1.73;;
77872;SDS011;67068;52.116;4.440;2023-10-19T02:07:07;4.60;;;1.70;;
77872;SDS011;67068;52.116;4.440;2023-10-19T02:09:37;5.18;;;2.15;;
77872;SDS011;67068;52.116;4.440;2023-10-19T02:12:04;4.47;;;1.30;;
77872;SDS011;67068;52.116;4.440;2023-10-19T02:14:31;5.68;;;1.90;;
77872;SDS011;67068;52.116;4.440;2023-10-19T02:16:58;4.53;;;1.40;;
77872;SDS011;67068;52.116;4.440;2023-10-19T02:19:25;4.40;;;1.50;;
77872;SDS011;67068;52.116;4.440;2023-10-19T02:21:51;5.47;;;1.77;;
77872;SDS011;67068;52.116;4.440;2023-10-19T02:24:17;4.03;;;1.52;;
77872;SDS011;67068;52.116;4.440;2023-10-19T02:26:43;4.38;;;1.60;;
77872;SDS011;67068;52.116;4.440;2023-10-19T02:29:08;5.28;;;1.65;;
77872;SDS011;67068;52.116;4.440;2023-10-19T02:31:37;5.25;;;1.60;;
77872;SDS011;67068;52.116;4.440;2023-10-19T02:34:03;5.63;;;1.70;;
77872;SDS011;67068;52.116;4.440;2023-10-19T02:36:29;4.78;;;1.48;;
77872;SDS011;67068;52.116;4.440;2023-10-19T02:38:59;4.43;;;1.40;;
77872;SDS011;67068;52.116;4.440;2023-10-19T02:41:24;4.07;;;1.50;;
77872;SDS011;67068;52.116;4.440;2023-10-19T02:43:51;4.57;;;1.70;;
77872;SDS011;67068;52.116;4.440;2023-10-19T02:46:29;4.55;;;1.40;;
77872;SDS011;67068;52.116;4.440;2023-10-19T02:48:59;6.00;;;1.42;;
77872;SDS011;67068;52.116;4.440;2023-10-19T02:51:24;4.75;;;1.63;;
77872;SDS011;67068;52.116;4.440;2023-10-19T02:53:51;3.88;;;1.33;;
77872;SDS011;67068;52.116;4.440;2023-10-19T02:56:16;5.68;;;1.52;;
77872;SDS011;67068;52.116;4.440;2023-10-19T02:58:42;4.00;;;1.47;;
77872;SDS011;67068;52.116;4.440;2023-10-19T03:01:11;3.08;;;1.10;;
77872;SDS011;67068;52.116;4.440;2023-10-19T03:03:37;5.25;;;1.27;;
77872;SDS011;67068;52.116;4.440;2023-10-19T03:06:02;3.47;;;1.13;;
77872;SDS011;67068;52.116;4.440;2023-10-19T03:08:29;3.65;;;1.30;;
77872;SDS011;67068;52.116;4.440;2023-10-19T03:10:56;4.15;;;1.60;;
77872;SDS011;67068;52.116;4.440;2023-10-19T03:13:30;3.55;;;1.30;;
77872;SDS011;67068;52.116;4.440;2023-10-19T03:15:58;4.32;;;1.40;;
77872;SDS011;67068;52.116;4.440;2023-10-19T03:18:23;3.97;;;1.10;;
77872;SDS011;67068;52.116;4.440;2023-10-19T03:20:51;3.85;;;1.23;;
77872;SDS011;67068;52.116;4.440;2023-10-19T03:23:16;4.68;;;1.02;;
77872;SDS011;67068;52.116;4.440;2023-10-19T03:25:41;4.07;;;1.13;;
77872;SDS011;67068;52.116;4.440;2023-10-19T03:28:25;4.10;;;1.48;;
77872;SDS011;67068;52.116;4.440;2023-10-19T03:30:51;3.33;;;1.20;;
77872;SDS011;67068;52.116;4.440;2023-10-19T03:33:16;4.17;;;1.53;;
77872;SDS011;67068;52.116;4.440;2023-10-19T03:35:43;2.80;;;1.00;;
77872;SDS011;67068;52.116;4.440;2023-10-19T03:38:08;4.72;;;1.13;;
77872;SDS011;67068;52.116;4.440;2023-10-19T03:40:40;4.28;;;1.60;;
77872;SDS011;67068;52.116;4.440;2023-10-19T03:43:05;5.47;;;1.42;;
77872;SDS011;67068;52.116;4.440;2023-10-19T03:45:41;4.13;;;1.35;;
77872;SDS011;67068;52.116;4.440;2023-10-19T03:48:12;3.75;;;1.17;;
77872;SDS011;67068;52.116;4.440;2023-10-19T03:50:37;4.28;;;1.30;;
77872;SDS011;67068;52.116;4.440;2023-10-19T03:53:03;4.40;;;1.47;;
77872;SDS011;67068;52.116;4.440;2023-10-19T03:55:29;3.83;;;1.20;;
77872;SDS011;67068;52.116;4.440;2023-10-19T03:57:55;3.50;;;1.30;;
77872;SDS011;67068;52.116;4.440;2023-10-19T04:00:20;3.70;;;1.20;;
77872;SDS011;67068;52.116;4.440;2023-10-19T04:02:50;5.22;;;1.60;;
77872;SDS011;67068;52.116;4.440;2023-10-19T04:05:20;3.22;;;1.10;;
77872;SDS011;67068;52.116;4.440;2023-10-19T04:07:47;3.05;;;1.10;;
77872;SDS011;67068;52.116;4.440;2023-10-19T04:10:15;3.50;;;1.30;;
77872;SDS011;67068;52.116;4.440;2023-10-19T04:13:03;3.83;;;1.15;;
77872;SDS011;67068;52.116;4.440;2023-10-19T04:15:29;4.28;;;1.20;;
77872;SDS011;67068;52.116;4.440;2023-10-19T04:17:54;2.75;;;1.05;;
77872;SDS011;67068;52.116;4.440;2023-10-19T04:22:55;3.80;;;1.10;;
77872;SDS011;67068;52.116;4.440;2023-10-19T04:25:20;3.83;;;1.30;;
77872;SDS011;67068;52.116;4.440;2023-10-19T04:27:46;3.78;;;1.10;;
77872;SDS011;67068;52.116;4.440;2023-10-19T04:30:12;3.60;;;1.33;;
77872;SDS011;67068;52.116;4.440;2023-10-19T04:32:44;4.72;;;1.10;;
77872;SDS011;67068;52.116;4.440;2023-10-19T04:35:09;2.95;;;1.10;;
77872;SDS011;67068;52.116;4.440;2023-10-19T04:37:35;2.63;;;1.03;;
77872;SDS011;67068;52.116;4.440;2023-10-19T04:40:00;3.28;;;1.20;;
77872;SDS011;67068;52.116;4.440;2023-10-19T04:42:26;3.57;;;1.00;;
77872;SDS011;67068;52.116;4.440;2023-10-19T04:44:52;2.50;;;1.20;;
77872;SDS011;67068;52.116;4.440;2023-10-19T04:47:18;3.17;;;1.40;;
77872;SDS011;67068;52.116;4.440;2023-10-19T04:49:43;3.90;;;1.20;;
77872;SDS011;67068;52.116;4.440;2023-10-19T04:52:08;3.67;;;1.15;;
77872;SDS011;67068;52.116;4.440;2023-10-19T04:54:34;4.50;;;1.33;;
77872;SDS011;67068;52.116;4.440;2023-10-19T04:56:59;3.57;;;1.10;;
77872;SDS011;67068;52.116;4.440;2023-10-19T04:59:25;4.22;;;1.20;;
77872;SDS011;67068;52.116;4.440;2023-10-19T05:01:50;3.40;;;1.27;;
77872;SDS011;67068;52.116;4.440;2023-10-19T05:06:42;5.60;;;1.52;;
77872;SDS011;67068;52.116;4.440;2023-10-19T05:09:07;3.88;;;0.98;;
77872;SDS011;67068;52.116;4.440;2023-10-19T05:11:32;3.88;;;1.20;;
77872;SDS011;67068;52.116;4.440;2023-10-19T05:13:58;2.93;;;0.90;;
77872;SDS011;67068;52.116;4.440;2023-10-19T05:16:23;4.07;;;1.27;;
77872;SDS011;67068;52.116;4.440;2023-10-19T05:18:48;3.87;;;1.17;;
77872;SDS011;67068;52.116;4.440;2023-10-19T05:21:13;2.77;;;1.00;;
77872;SDS011;67068;52.116;4.440;2023-10-19T05:23:39;3.90;;;1.10;;
77872;SDS011;67068;52.116;4.440;2023-10-19T05:26:04;2.67;;;0.97;;
77872;SDS011;67068;52.116;4.440;2023-10-19T05:28:32;4.05;;;1.00;;
77872;SDS011;67068;52.116;4.440;2023-10-19T05:30:57;3.40;;;1.20;;
77872;SDS011;67068;52.116;4.440;2023-10-19T05:33:24;2.85;;;1.02;;
77872;SDS011;67068;52.116;4.440;2023-10-19T05:35:50;3.40;;;0.90;;
77872;SDS011;67068;52.116;4.440;2023-10-19T05:38:16;3.70;;;1.10;;
77872;SDS011;67068;52.116;4.440;2023-10-19T05:40:42;2.50;;;1.02;;
77872;SDS011;67068;52.116;4.440;2023-10-19T05:43:10;3.63;;;0.98;;
77872;SDS011;67068;52.116;4.440;2023-10-19T05:45:36;3.40;;;1.10;;
77872;SDS011;67068;52.116;4.440;2023-10-19T05:48:01;2.20;;;0.80;;
77872;SDS011;67068;52.116;4.440;2023-10-19T05:50:28;2.80;;;0.90;;
77872;SDS011;67068;52.116;4.440;2023-10-19T05:52:54;3.58;;;1.00;;
77872;SDS011;67068;52.116;4.440;2023-10-19T05:55:19;3.20;;;0.80;;
77872;SDS011;67068;52.116;4.440;2023-10-19T05:57:46;3.00;;;0.82;;
77872;SDS011;67068;52.116;4.440;2023-10-19T06:00:12;4.47;;;1.00;;
77872;SDS011;67068;52.116;4.440;2023-10-19T06:02:44;5.05;;;1.30;;
77872;SDS011;67068;52.116;4.440;2023-10-19T06:05:09;2.92;;;0.80;;
77872;SDS011;67068;52.116;4.440;2023-10-19T06:07:35;4.05;;;1.20;;
77872;SDS011;67068;52.116;4.440;2023-10-19T06:10:00;4.07;;;1.00;;
77872;SDS011;67068;52.116;4.440;2023-10-19T06:12:29;4.88;;;1.00;;
77872;SDS011;67068;52.116;4.440;2023-10-19T06:14:54;3.47;;;1.00;;
77872;SDS011;67068;52.116;4.440;2023-10-19T06:17:19;4.97;;;1.20;;
77872;SDS011;67068;52.116;4.440;2023-10-19T06:19:44;3.23;;;1.00;;
77872;SDS011;67068;52.116;4.440;2023-10-19T06:22:11;5.13;;;1.02;;
77872;SDS011;67068;52.116;4.440;2023-10-19T06:24:37;2.83;;;1.00;;
77872;SDS011;67068;52.116;4.440;2023-10-19T06:27:02;4.67;;;1.20;;
77872;SDS011;67068;52.116;4.440;2023-10-19T06:29:29;5.25;;;1.42;;
77872;SDS011;67068;52.116;4.440;2023-10-19T06:31:54;2.63;;;0.90;;
77872;SDS011;67068;52.116;4.440;2023-10-19T06:34:19;4.88;;;1.10;;
77872;SDS011;67068;52.116;4.440;2023-10-19T06:36:45;3.97;;;0.88;;
77872;SDS011;67068;52.116;4.440;2023-10-19T06:39:10;4.30;;;1.00;;
77872;SDS011;67068;52.116;4.440;2023-10-19T06:41:38;3.55;;;1.25;;
77872;SDS011;67068;52.116;4.440;2023-10-19T06:44:03;4.30;;;1.37;;
77872;SDS011;67068;52.116;4.440;2023-10-19T06:46:29;2.78;;;0.98;;
77872;SDS011;67068;52.116;4.440;2023-10-19T06:48:55;2.67;;;0.90;;
77872;SDS011;67068;52.116;4.440;2023-10-19T06:51:25;4.47;;;0.85;;
77872;SDS011;67068;52.116;4.440;2023-10-19T06:53:51;4.40;;;0.90;;
77872;SDS011;67068;52.116;4.440;2023-10-19T06:56:16;4.47;;;1.13;;
77872;SDS011;67068;52.116;4.440;2023-10-19T06:58:42;3.30;;;0.90;;
77872;SDS011;67068;52.116;4.440;2023-10-19T07:01:07;4.13;;;1.10;;
77872;SDS011;67068;52.116;4.440;2023-10-19T07:03:33;3.47;;;0.93;;
77872;SDS011;67068;52.116;4.440;2023-10-19T07:05:58;3.38;;;0.90;;
77872;SDS011;67068;52.116;4.440;2023-10-19T07:08:24;4.53;;;1.10;;
77872;SDS011;67068;52.116;4.440;2023-10-19T07:10:52;2.05;;;0.80;;
77872;SDS011;67068;52.116;4.440;2023-10-19T07:13:17;4.75;;;1.15;;
77872;SDS011;67068;52.116;4.440;2023-10-19T07:15:44;3.80;;;0.80;;
77872;SDS011;67068;52.116;4.440;2023-10-19T07:18:09;3.58;;;0.88;;
77872;SDS011;67068;52.116;4.440;2023-10-19T07:20:35;6.43;;;0.93;;
77872;SDS011;67068;52.116;4.440;2023-10-19T07:25:49;2.03;;;0.80;;
77872;SDS011;67068;52.116;4.440;2023-10-19T07:28:19;3.20;;;0.85;;
77872;SDS011;67068;52.116;4.440;2023-10-19T07:30:45;2.47;;;0.90;;
77872;SDS011;67068;52.116;4.440;2023-10-19T07:33:11;4.45;;;0.93;;
77872;SDS011;67068;52.116;4.440;2023-10-19T07:35:42;3.30;;;0.80;;
77872;SDS011;67068;52.116;4.440;2023-10-19T07:38:08;3.50;;;1.05;;
77872;SDS011;67068;52.116;4.440;2023-10-19T07:40:34;5.30;;;0.93;;
77872;SDS011;67068;52.116;4.440;2023-10-19T07:42:59;4.03;;;0.98;;
77872;SDS011;67068;52.116;4.440;2023-10-19T07:45:24;3.20;;;1.00;;
77872;SDS011;67068;52.116;4.440;2023-10-19T07:47:50;4.43;;;1.00;;
77872;SDS011;67068;52.116;4.440;2023-10-19T07:50:16;4.30;;;0.90;;
77872;SDS011;67068;52.116;4.440;2023-10-19T07:52:41;4.73;;;1.00;;
77872;SDS011;67068;52.116;4.440;2023-10-19T07:55:08;5.97;;;0.95;;
77872;SDS011;67068;52.116;4.440;2023-10-19T07:57:33;4.10;;;0.90;;
77872;SDS011;67068;52.116;4.440;2023-10-19T08:00:02;4.35;;;1.00;;
77872;SDS011;67068;52.116;4.440;2023-10-19T08:02:29;2.47;;;0.80;;
77872;SDS011;67068;52.116;4.440;2023-10-19T08:04:55;5.72;;;1.17;;
77872;SDS011;67068;52.116;4.440;2023-10-19T08:07:21;4.15;;;0.90;;
77872;SDS011;67068;52.116;4.440;2023-10-19T08:09:46;4.30;;;0.90;;
77872;SDS011;67068;52.116;4.440;2023-10-19T08:12:11;7.97;;;1.17;;
77872;SDS011;67068;52.116;4.440;2023-10-19T08:14:38;5.53;;;0.98;;
77872;SDS011;67068;52.116;4.440;2023-10-19T08:17:04;7.00;;;0.82;;
77872;SDS011;67068;52.116;4.440;2023-10-19T08:19:29;4.30;;;1.10;;
77872;SDS011;67068;52.116;4.440;2023-10-19T08:21:57;5.93;;;1.00;;
77872;SDS011;67068;52.116;4.440;2023-10-19T08:24:23;5.80;;;1.00;;
77872;SDS011;67068;52.116;4.440;2023-10-19T08:26:54;5.65;;;0.98;;
77872;SDS011;67068;52.116;4.440;2023-10-19T08:29:20;3.88;;;0.82;;
77872;SDS011;67068;52.116;4.440;2023-10-19T08:31:45;3.60;;;0.97;;
77872;SDS011;67068;52.116;4.440;2023-10-19T08:34:11;4.57;;;0.80;;
77872;SDS011;67068;52.116;4.440;2023-10-19T08:36:37;3.55;;;0.88;;
77872;SDS011;67068;52.116;4.440;2023-10-19T08:39:03;4.70;;;1.05;;
77872;SDS011;67068;52.116;4.440;2023-10-19T08:41:31;4.60;;;1.10;;
77872;SDS011;67068;52.116;4.440;2023-10-19T08:43:56;8.98;;;1.20;;
77872;SDS011;67068;52.116;4.440;2023-10-19T08:46:22;5.28;;;1.15;;
77872;SDS011;67068;52.116;4.440;2023-10-19T08:48:49;4.75;;;0.98;;
77872;SDS011;67068;52.116;4.440;2023-10-19T08:51:15;6.15;;;1.02;;
77872;SDS011;67068;52.116;4.440;2023-10-19T08:53:41;5.60;;;1.00;;
77872;SDS011;67068;52.116;4.440;2023-10-19T08:56:09;4.05;;;0.95;;
77872;SDS011;67068;52.116;4.440;2023-10-19T08:58:35;6.45;;;1.02;;
77872;SDS011;67068;52.116;4.440;2023-10-19T09:01:00;4.65;;;1.17;;
77872;SDS011;67068;52.116;4.440;2023-10-19T09:03:31;4.90;;;1.30;;
77872;SDS011;67068;52.116;4.440;2023-10-19T09:05:57;6.75;;;1.58;;
77872;SDS011;67068;52.116;4.440;2023-10-19T09:08:22;6.97;;;1.07;;
77872;SDS011;67068;52.116;4.440;2023-10-19T09:13:20;4.75;;;1.02;;
77872;SDS011;67068;52.116;4.440;2023-10-19T09:15:47;6.35;;;0.90;;
77872;SDS011;67068;52.116;4.440;2023-10-19T09:18:19;5.00;;;1.20;;
77872;SDS011;67068;52.116;4.440;2023-10-19T09:20:48;6.60;;;1.10;;
77872;SDS011;67068;52.116;4.440;2023-10-19T09:23:32;3.08;;;0.90;;
77872;SDS011;67068;52.116;4.440;2023-10-19T09:26:00;4.03;;;1.23;;
77872;SDS011;67068;52.116;4.440;2023-10-19T09:28:28;5.78;;;1.15;;
77872;SDS011;67068;52.116;4.440;2023-10-19T09:30:54;5.10;;;0.82;;
77872;SDS011;67068;52.116;4.440;2023-10-19T09:33:20;6.50;;;0.93;;
77872;SDS011;67068;52.116;4.440;2023-10-19T09:35:47;6.47;;;1.08;;
77872;SDS011;67068;52.116;4.440;2023-10-19T09:38:18;4.80;;;0.98;;
77872;SDS011;67068;52.116;4.440;2023-10-19T09:40:52;7.97;;;1.05;;
77872;SDS011;67068;52.116;4.440;2023-10-19T09:43:28;5.55;;;1.10;;
77872;SDS011;67068;52.116;4.440;2023-10-19T09:45:56;7.65;;;1.40;;
77872;SDS011;67068;52.116;4.440;2023-10-19T09:48:23;7.82;;;1.23;;
77872;SDS011;67068;52.116;4.440;2023-10-19T09:50:53;10.05;;;1.20;;
77872;SDS011;67068;52.116;4.440;2023-10-19T09:53:21;5.90;;;1.45;;
77872;SDS011;67068;52.116;4.440;2023-10-19T09:55:47;6.45;;;1.30;;
77872;SDS011;67068;52.116;4.440;2023-10-19T09:58:15;8.43;;;1.23;;
77872;SDS011;67068;52.116;4.440;2023-10-19T10:00:47;5.70;;;1.23;;
77872;SDS011;67068;52.116;4.440;2023-10-19T10:05:58;7.38;;;1.55;;
77872;SDS011;67068;52.116;4.440;2023-10-19T10:10:49;5.63;;;1.33;;
77872;SDS011;67068;52.116;4.440;2023-10-19T10:15:47;4.65;;;1.00;;
77872;SDS011;67068;52.116;4.440;2023-10-19T10:18:13;6.30;;;1.00;;
77872;SDS011;67068;52.116;4.440;2023-10-19T10:20:41;5.18;;;1.23;;
77872;SDS011;67068;52.116;4.440;2023-10-19T10:23:16;6.72;;;1.25;;
77872;SDS011;67068;52.116;4.440;2023-10-19T10:25:42;7.72;;;1.10;;
77872;SDS011;67068;52.116;4.440;2023-10-19T10:28:13;6.25;;;1.30;;
77872;SDS011;67068;52.116;4.440;2023-10-19T10:31:06;5.57;;;1.13;;
77872;SDS011;67068;52.116;4.440;2023-10-19T10:33:44;4.93;;;0.82;;
77872;SDS011;67068;52.116;4.440;2023-10-19T10:36:13;6.50;;;1.10;;
77872;SDS011;67068;52.116;4.440;2023-10-19T10:38:39;4.53;;;1.48;;
77872;SDS011;67068;52.116;4.440;2023-10-19T10:41:04;6.82;;;1.10;;
77872;SDS011;67068;52.116;4.440;2023-10-19T10:43:29;4.77;;;1.10;;
77872;SDS011;67068;52.116;4.440;2023-10-19T10:46:04;5.07;;;0.80;;
77872;SDS011;67068;52.116;4.440;2023-10-19T10:48:30;5.55;;;1.52;;
77872;SDS011;67068;52.116;4.440;2023-10-19T10:50:55;8.20;;;1.20;;
77872;SDS011;67068;52.116;4.440;2023-10-19T10:53:22;5.73;;;1.27;;
77872;SDS011;67068;52.116;4.440;2023-10-19T10:55:49;6.70;;;1.20;;
77872;SDS011;67068;52.116;4.440;2023-10-19T10:58:15;7.50;;;1.10;;
77872;SDS011;67068;52.116;4.440;2023-10-19T11:00:43;5.75;;;1.40;;
77872;SDS011;67068;52.116;4.440;2023-10-19T11:03:10;7.70;;;1.60;;
77872;SDS011;67068;52.116;4.440;2023-10-19T11:05:36;7.07;;;1.17;;
77872;SDS011;67068;52.116;4.440;2023-10-19T11:08:08;8.13;;;1.55;;
77872;SDS011;67068;52.116;4.440;2023-10-19T11:10:41;7.00;;;1.10;;
77872;SDS011;67068;52.116;4.440;2023-10-19T11:13:07;5.43;;;1.20;;
77872;SDS011;67068;52.116;4.440;2023-10-19T11:15:34;6.82;;;1.30;;
77872;SDS011;67068;52.116;4.440;2023-10-19T11:18:00;5.97;;;1.27;;
77872;SDS011;67068;52.116;4.440;2023-10-19T11:20:26;5.88;;;1.13;;
77872;SDS011;67068;52.116;4.440;2023-10-19T11:22:54;6.40;;;1.40;;
77872;SDS011;67068;52.116;4.440;2023-10-19T11:25:26;5.80;;;1.27;;
77872;SDS011;67068;52.116;4.440;2023-10-19T11:27:53;10.43;;;1.48;;
77872;SDS011;67068;52.116;4.440;2023-10-19T11:30:25;5.10;;;1.08;;
77872;SDS011;67068;52.116;4.440;2023-10-19T11:32:51;4.53;;;1.00;;
77872;SDS011;67068;52.116;4.440;2023-10-19T11:35:26;6.57;;;1.75;;
77872;SDS011;67068;52.116;4.440;2023-10-19T11:37:53;6.68;;;1.13;;
77872;SDS011;67068;52.116;4.440;2023-10-19T11:40:20;5.15;;;1.38;;
77872;SDS011;67068;52.116;4.440;2023-10-19T11:42:45;7.63;;;1.35;;
77872;SDS011;67068;52.116;4.440;2023-10-19T11:45:10;5.68;;;1.15;;
77872;SDS011;67068;52.116;4.440;2023-10-19T11:47:37;6.22;;;1.40;;
77872;SDS011;67068;52.116;4.440;2023-10-19T11:50:02;6.00;;;1.25;;
77872;SDS011;67068;52.116;4.440;2023-10-19T11:52:27;9.03;;;1.43;;
77872;SDS011;67068;52.116;4.440;2023-10-19T11:54:54;8.73;;;1.42;;
77872;SDS011;67068;52.116;4.440;2023-10-19T11:57:20;7.63;;;1.30;;
77872;SDS011;67068;52.116;4.440;2023-10-19T11:59:45;4.27;;;0.97;;
77872;SDS011;67068;52.116;4.440;2023-10-19T12:02:10;6.27;;;1.20;;
77872;SDS011;67068;52.116;4.440;2023-10-19T12:04:36;6.22;;;1.15;;
77872;SDS011;67068;52.116;4.440;2023-10-19T12:07:02;8.40;;;1.60;;
77872;SDS011;67068;52.116;4.440;2023-10-19T12:09:28;10.80;;;1.33;;
77872;SDS011;67068;52.116;4.440;2023-10-19T12:11:53;8.98;;;1.83;;
77872;SDS011;67068;52.116;4.440;2023-10-19T12:14:19;8.27;;;1.70;;
77872;SDS011;67068;52.116;4.440;2023-10-19T12:16:46;7.45;;;1.30;;
77872;SDS011;67068;52.116;4.440;2023-10-19T12:19:11;8.23;;;1.70;;
77872;SDS011;67068;52.116;4.440;2023-10-19T12:21:36;7.63;;;1.60;;
77872;SDS011;67068;52.116;4.440;2023-10-19T12:24:03;6.75;;;1.50;;
77872;SDS011;67068;52.116;4.440;2023-10-19T12:26:29;5.28;;;0.80;;
77872;SDS011;67068;52.116;4.440;2023-10-19T12:28:55;8.23;;;1.30;;
77872;SDS011;67068;52.116;4.440;2023-10-19T12:31:20;5.22;;;1.13;;
77872;SDS011;67068;52.116;4.440;2023-10-19T12:33:48;7.63;;;1.40;;
77872;SDS011;67068;52.116;4.440;2023-10-19T12:36:13;9.43;;;1.87;;
77872;SDS011;67068;52.116;4.440;2023-10-19T12:38:53;6.55;;;1.20;;
77872;SDS011;67068;52.116;4.440;2023-10-19T12:41:19;4.80;;;1.20;;
77872;SDS011;67068;52.116;4.440;2023-10-19T12:43:45;6.03;;;1.20;;
77872;SDS011;67068;52.116;4.440;2023-10-19T12:46:17;6.78;;;1.40;;
77872;SDS011;67068;52.116;4.440;2023-10-19T12:48:44;5.60;;;1.02;;
77872;SDS011;67068;52.116;4.440;2023-10-19T12:51:12;3.78;;;1.08;;
77872;SDS011;67068;52.116;4.440;2023-10-19T12:53:38;6.20;;;1.13;;
77872;SDS011;67068;52.116;4.440;2023-10-19T12:56:04;8.55;;;1.50;;
77872;SDS011;67068;52.116;4.440;2023-10-19T12:58:29;5.50;;;1.27;;
77872;SDS011;67068;52.116;4.440;2023-10-19T13:00:54;7.77;;;1.23;;
77872;SDS011;67068;52.116;4.440;2023-10-19T13:03:21;6.35;;;1.52;;
77872;SDS011;67068;52.116;4.440;2023-10-19T13:05:47;5.45;;;1.42;;
77872;SDS011;67068;52.116;4.440;2023-10-19T13:08:14;6.20;;;1.48;;
77872;SDS011;67068;52.116;4.440;2023-10-19T13:10:43;3.63;;;0.90;;
77872;SDS011;67068;52.116;4.440;2023-10-19T13:13:09;6.15;;;1.10;;
77872;SDS011;67068;52.116;4.440;2023-10-19T13:15:41;8.50;;;1.30;;
77872;SDS011;67068;52.116;4.440;2023-10-19T13:20:32;5.83;;;1.40;;
77872;SDS011;67068;52.116;4.440;2023-10-19T13:23:01;7.25;;;1.30;;
77872;SDS011;67068;52.116;4.440;2023-10-19T13:25:28;5.90;;;1.10;;
77872;SDS011;67068;52.116;4.440;2023-10-19T13:28:05;6.70;;;1.30;;
77872;SDS011;67068;52.116;4.440;2023-10-19T13:30:30;4.57;;;0.93;;
77872;SDS011;67068;52.116;4.440;2023-10-19T13:32:56;6.93;;;1.27;;
77872;SDS011;67068;52.116;4.440;2023-10-19T13:35:21;6.17;;;1.20;;
77872;SDS011;67068;52.116;4.440;2023-10-19T13:37:47;7.95;;;1.55;;
77872;SDS011;67068;52.116;4.440;2023-10-19T13:40:12;5.80;;;1.10;;
77872;SDS011;67068;52.116;4.440;2023-10-19T13:42:38;6.72;;;1.05;;
77872;SDS011;67068;52.116;4.440;2023-10-19T13:45:04;7.28;;;1.33;;
77872;SDS011;67068;52.116;4.440;2023-10-19T13:47:29;4.35;;;1.17;;
77872;SDS011;67068;52.116;4.440;2023-10-19T13:49:58;5.65;;;1.08;;
77872;SDS011;67068;52.116;4.440;2023-10-19T13:52:23;6.97;;;1.10;;
77872;SDS011;67068;52.116;4.440;2023-10-19T13:54:50;6.43;;;1.23;;
77872;SDS011;67068;52.116;4.440;2023-10-19T13:57:16;7.80;;;1.48;;
77872;SDS011;67068;52.116;4.440;2023-10-19T13:59:41;8.38;;;1.35;;
77872;SDS011;67068;52.116;4.440;2023-10-19T14:02:06;5.67;;;1.17;;
77872;SDS011;67068;52.116;4.440;2023-10-19T14:04:33;8.02;;;1.50;;
77872;SDS011;67068;52.116;4.440;2023-10-19T14:06:58;9.13;;;1.70;;
77872;SDS011;67068;52.116;4.440;2023-10-19T14:09:24;8.52;;;1.50;;
77872;SDS011;67068;52.116;4.440;2023-10-19T14:11:51;8.93;;;1.60;;
77872;SDS011;67068;52.116;4.440;2023-10-19T14:14:16;12.90;;;1.97;;
77872;SDS011;67068;52.116;4.440;2023-10-19T14:16:41;7.70;;;1.80;;
77872;SDS011;67068;52.116;4.440;2023-10-19T14:19:09;8.30;;;1.42;;
77872;SDS011;67068;52.116;4.440;2023-10-19T14:21:34;6.10;;;1.30;;
77872;SDS011;67068;52.116;4.440;2023-10-19T14:24:02;6.80;;;1.42;;
77872;SDS011;67068;52.116;4.440;2023-10-19T14:26:28;9.18;;;1.40;;
77872;SDS011;67068;52.116;4.440;2023-10-19T14:28:53;9.83;;;1.97;;
77872;SDS011;67068;52.116;4.440;2023-10-19T14:31:19;7.93;;;1.35;;
77872;SDS011;67068;52.116;4.440;2023-10-19T14:33:45;7.15;;;1.42;;
77872;SDS011;67068;52.116;4.440;2023-10-19T14:36:10;5.20;;;1.27;;
77872;SDS011;67068;52.116;4.440;2023-10-19T14:38:35;6.37;;;1.50;;
77872;SDS011;67068;52.116;4.440;2023-10-19T14:41:01;7.93;;;1.58;;
77872;SDS011;67068;52.116;4.440;2023-10-19T14:43:26;7.05;;;1.52;;
77872;SDS011;67068;52.116;4.440;2023-10-19T14:45:54;6.38;;;1.48;;
77872;SDS011;67068;52.116;4.440;2023-10-19T14:48:19;6.50;;;1.45;;
77872;SDS011;67068;52.116;4.440;2023-10-19T14:50:45;8.10;;;1.67;;
77872;SDS011;67068;52.116;4.440;2023-10-19T14:53:12;7.88;;;1.60;;
77872;SDS011;67068;52.116;4.440;2023-10-19T14:55:37;8.37;;;1.30;;
77872;SDS011;67068;52.116;4.440;2023-10-19T14:58:02;6.72;;;1.40;;
77872;SDS011;67068;52.116;4.440;2023-10-19T15:00:31;6.68;;;1.50;;
77872;SDS011;67068;52.116;4.440;2023-10-19T15:02:56;7.17;;;1.47;;
77872;SDS011;67068;52.116;4.440;2023-10-19T15:05:25;9.55;;;1.73;;
77872;SDS011;67068;52.116;4.440;2023-10-19T15:07:51;7.85;;;1.30;;
77872;SDS011;67068;52.116;4.440;2023-10-19T15:10:17;5.63;;;1.85;;
77872;SDS011;67068;52.116;4.440;2023-10-19T15:12:43;7.00;;;1.20;;